sensor_id;sensor_type;location;lat;lon;timestamp;P1;durP1;ratioP1;P2;durP2;ratioP2
14665;SDS011;7420;53.574;10.040;2022-10-16T00:01:18;11.80;;;7.88;;
14665;SDS011;7420;53.574;10.040;2022-10-16T00:03:46;12.95;;;7.50;;
14665;SDS011;7420;53.574;10.040;2022-10-16T00:06:12;12.50;;;6.32;;
14665;SDS011;7420;53.574;10.040;2022-10-16T00:08:38;9.98;;;6.40;;
14665;SDS011;7420;53.574;10.040;2022-10-16T00:11:06;10.98;;;6.43;;
14665;SDS011;7420;53.574;10.040;2022-10-16T00:13:33;10.13;;;6.43;;
14665;SDS011;7420;53.574;10.040;2022-10-16T00:16:00;8.10;;;5.28;;
14665;SDS011;7420;53.574;10.040;2022-10-16T00:18:26;6.63;;;4.47;;
14665;SDS011;7420;53.574;10.040;2022-10-16T00:20:53;8.77;;;5.10;;
14665;SDS011;7420;53.574;10.040;2022-10-16T00:23:19;6.40;;;4.45;;
14665;SDS011;7420;53.574;10.040;2022-10-16T00:25:45;7.30;;;4.28;;
14665;SDS011;7420;53.574;10.040;2022-10-16T00:28:18;8.05;;;4.13;;
14665;SDS011;7420;53.574;10.040;2022-10-16T00:30:44;8.52;;;3.70;;
14665;SDS011;7420;53.574;10.040;2022-10-16T00:33:09;7.35;;;4.05;;
14665;SDS011;7420;53.574;10.040;2022-10-16T00:35:34;5.70;;;3.25;;
14665;SDS011;7420;53.574;10.040;2022-10-16T00:37:59;5.70;;;3.40;;
14665;SDS011;7420;53.574;10.040;2022-10-16T00:40:25;4.75;;;2.90;;
14665;SDS011;7420;53.574;10.040;2022-10-16T00:42:50;5.18;;;3.33;;
14665;SDS011;7420;53.574;10.040;2022-10-16T00:45:15;7.70;;;3.40;;
14665;SDS011;7420;53.574;10.040;2022-10-16T00:47:44;6.28;;;3.58;;
14665;SDS011;7420;53.574;10.040;2022-10-16T00:50:27;8.10;;;3.60;;
14665;SDS011;7420;53.574;10.040;2022-10-16T00:52:54;6.47;;;2.88;;
14665;SDS011;7420;53.574;10.040;2022-10-16T00:55:21;4.80;;;2.85;;
14665;SDS011;7420;53.574;10.040;2022-10-16T00:57:47;5.00;;;2.53;;
14665;SDS011;7420;53.574;10.040;2022-10-16T01:00:15;4.63;;;2.20;;
14665;SDS011;7420;53.574;10.040;2022-10-16T01:02:44;6.15;;;2.60;;
14665;SDS011;7420;53.574;10.040;2022-10-16T01:05:10;3.97;;;2.30;;
14665;SDS011;7420;53.574;10.040;2022-10-16T01:13:02;2.30;;;2.10;;
14665;SDS011;7420;53.574;10.040;2022-10-16T01:15:39;5.57;;;2.33;;
14665;SDS011;7420;53.574;10.040;2022-10-16T01:18:16;3.15;;;2.00;;
14665;SDS011;7420;53.574;10.040;2022-10-16T01:20:51;5.70;;;2.30;;
14665;SDS011;7420;53.574;10.040;2022-10-16T01:23:28;1.95;;;1.55;;
14665;SDS011;7420;53.574;10.040;2022-10-16T01:26:20;3.47;;;1.92;;
14665;SDS011;7420;53.574;10.040;2022-10-16T01:29:40;5.00;;;2.58;;
14665;SDS011;7420;53.574;10.040;2022-10-16T01:31:48;5.65;;;2.40;;
14665;SDS011;7420;53.574;10.040;2022-10-16T01:34:20;4.45;;;2.08;;
14665;SDS011;7420;53.574;10.040;2022-10-16T01:36:56;3.63;;;2.30;;
14665;SDS011;7420;53.574;10.040;2022-10-16T01:39:29;6.18;;;2.50;;
14665;SDS011;7420;53.574;10.040;2022-10-16T01:42:31;5.40;;;2.47;;
14665;SDS011;7420;53.574;10.040;2022-10-16T01:44:56;3.67;;;2.38;;
14665;SDS011;7420;53.574;10.040;2022-10-16T01:47:24;3.95;;;1.92;;
14665;SDS011;7420;53.574;10.040;2022-10-16T01:49:51;3.35;;;2.25;;
14665;SDS011;7420;53.574;10.040;2022-10-16T01:52:20;5.05;;;2.58;;
14665;SDS011;7420;53.574;10.040;2022-10-16T01:54:50;4.88;;;2.22;;
14665;SDS011;7420;53.574;10.040;2022-10-16T01:57:19;6.03;;;2.38;;
14665;SDS011;7420;53.574;10.040;2022-10-16T01:59:47;3.45;;;2.78;;
14665;SDS011;7420;53.574;10.040;2022-10-16T02:02:15;3.95;;;2.00;;
14665;SDS011;7420;53.574;10.040;2022-10-16T02:04:44;4.47;;;2.47;;
14665;SDS011;7420;53.574;10.040;2022-10-16T02:07:10;4.97;;;2.25;;
14665;SDS011;7420;53.574;10.040;2022-10-16T02:09:36;3.97;;;2.47;;
14665;SDS011;7420;53.574;10.040;2022-10-16T02:12:05;5.57;;;2.53;;
14665;SDS011;7420;53.574;10.040;2022-10-16T02:14:37;5.82;;;2.50;;
14665;SDS011;7420;53.574;10.040;2022-10-16T02:17:14;4.55;;;2.47;;
14665;SDS011;7420;53.574;10.040;2022-10-16T02:19:41;6.03;;;2.10;;
14665;SDS011;7420;53.574;10.040;2022-10-16T02:22:08;3.78;;;2.33;;
14665;SDS011;7420;53.574;10.040;2022-10-16T02:30:45;5.35;;;2.40;;
14665;SDS011;7420;53.574;10.040;2022-10-16T02:33:15;6.05;;;2.13;;
14665;SDS011;7420;53.574;10.040;2022-10-16T02:35:43;4.07;;;2.25;;
14665;SDS011;7420;53.574;10.040;2022-10-16T02:38:10;4.68;;;2.22;;
14665;SDS011;7420;53.574;10.040;2022-10-16T02:40:36;4.40;;;2.60;;
14665;SDS011;7420;53.574;10.040;2022-10-16T02:43:03;2.45;;;1.95;;
14665;SDS011;7420;53.574;10.040;2022-10-16T02:45:30;3.45;;;2.28;;
14665;SDS011;7420;53.574;10.040;2022-10-16T02:47:55;3.75;;;2.40;;
14665;SDS011;7420;53.574;10.040;2022-10-16T02:50:20;2.95;;;2.20;;
14665;SDS011;7420;53.574;10.040;2022-10-16T02:52:46;5.88;;;2.13;;
14665;SDS011;7420;53.574;10.040;2022-10-16T02:55:11;3.80;;;2.13;;
14665;SDS011;7420;53.574;10.040;2022-10-16T02:57:36;4.50;;;2.30;;
14665;SDS011;7420;53.574;10.040;2022-10-16T03:00:03;4.50;;;2.10;;
14665;SDS011;7420;53.574;10.040;2022-10-16T03:02:29;6.53;;;2.50;;
14665;SDS011;7420;53.574;10.040;2022-10-16T03:04:55;4.43;;;2.83;;
14665;SDS011;7420;53.574;10.040;2022-10-16T03:07:20;3.38;;;2.05;;
14665;SDS011;7420;53.574;10.040;2022-10-16T03:09:45;2.88;;;2.20;;
14665;SDS011;7420;53.574;10.040;2022-10-16T03:12:11;5.65;;;2.40;;
14665;SDS011;7420;53.574;10.040;2022-10-16T03:14:37;4.90;;;2.70;;
14665;SDS011;7420;53.574;10.040;2022-10-16T03:17:02;3.05;;;2.00;;
14665;SDS011;7420;53.574;10.040;2022-10-16T03:19:27;4.60;;;2.30;;
14665;SDS011;7420;53.574;10.040;2022-10-16T03:21:52;5.55;;;2.25;;
14665;SDS011;7420;53.574;10.040;2022-10-16T03:24:18;3.22;;;2.40;;
14665;SDS011;7420;53.574;10.040;2022-10-16T03:26:43;3.30;;;2.20;;
14665;SDS011;7420;53.574;10.040;2022-10-16T03:29:08;4.68;;;1.80;;
14665;SDS011;7420;53.574;10.040;2022-10-16T03:31:34;4.30;;;2.40;;
14665;SDS011;7420;53.574;10.040;2022-10-16T03:33:59;5.53;;;2.42;;
14665;SDS011;7420;53.574;10.040;2022-10-16T03:36:24;3.33;;;2.42;;
14665;SDS011;7420;53.574;10.040;2022-10-16T03:38:50;4.18;;;2.00;;
14665;SDS011;7420;53.574;10.040;2022-10-16T03:41:15;3.63;;;2.17;;
14665;SDS011;7420;53.574;10.040;2022-10-16T03:43:40;3.30;;;1.77;;
14665;SDS011;7420;53.574;10.040;2022-10-16T03:46:06;2.60;;;1.85;;
14665;SDS011;7420;53.574;10.040;2022-10-16T03:48:31;2.53;;;2.10;;
14665;SDS011;7420;53.574;10.040;2022-10-16T03:50:57;3.10;;;2.78;;
14665;SDS011;7420;53.574;10.040;2022-10-16T03:53:22;4.57;;;2.13;;
14665;SDS011;7420;53.574;10.040;2022-10-16T03:55:48;3.85;;;1.92;;
14665;SDS011;7420;53.574;10.040;2022-10-16T03:58:13;3.22;;;2.30;;
14665;SDS011;7420;53.574;10.040;2022-10-16T04:00:42;4.05;;;2.03;;
14665;SDS011;7420;53.574;10.040;2022-10-16T04:03:08;3.83;;;1.90;;
14665;SDS011;7420;53.574;10.040;2022-10-16T04:05:34;6.32;;;2.30;;
14665;SDS011;7420;53.574;10.040;2022-10-16T04:07:59;3.72;;;2.25;;
14665;SDS011;7420;53.574;10.040;2022-10-16T04:10:24;3.13;;;2.03;;
14665;SDS011;7420;53.574;10.040;2022-10-16T04:12:49;5.28;;;2.10;;
14665;SDS011;7420;53.574;10.040;2022-10-16T04:15:15;5.00;;;2.05;;
14665;SDS011;7420;53.574;10.040;2022-10-16T04:17:40;3.80;;;2.15;;
14665;SDS011;7420;53.574;10.040;2022-10-16T04:20:05;2.85;;;1.98;;
14665;SDS011;7420;53.574;10.040;2022-10-16T04:22:31;4.18;;;2.15;;
14665;SDS011;7420;53.574;10.040;2022-10-16T04:24:56;9.88;;;2.67;;
14665;SDS011;7420;53.574;10.040;2022-10-16T04:27:21;6.03;;;2.47;;
14665;SDS011;7420;53.574;10.040;2022-10-16T04:29:47;4.72;;;2.30;;
14665;SDS011;7420;53.574;10.040;2022-10-16T04:32:12;3.42;;;1.90;;
14665;SDS011;7420;53.574;10.040;2022-10-16T04:34:38;2.88;;;2.03;;
14665;SDS011;7420;53.574;10.040;2022-10-16T04:37:04;2.83;;;1.75;;
14665;SDS011;7420;53.574;10.040;2022-10-16T04:39:30;6.75;;;2.17;;
14665;SDS011;7420;53.574;10.040;2022-10-16T04:41:55;4.95;;;2.20;;
14665;SDS011;7420;53.574;10.040;2022-10-16T04:44:21;3.90;;;2.13;;
14665;SDS011;7420;53.574;10.040;2022-10-16T04:46:46;9.30;;;2.35;;
14665;SDS011;7420;53.574;10.040;2022-10-16T04:49:11;7.05;;;2.50;;
14665;SDS011;7420;53.574;10.040;2022-10-16T04:51:36;6.35;;;2.45;;
14665;SDS011;7420;53.574;10.040;2022-10-16T04:54:02;7.85;;;2.58;;
14665;SDS011;7420;53.574;10.040;2022-10-16T04:56:27;5.07;;;2.75;;
14665;SDS011;7420;53.574;10.040;2022-10-16T04:58:52;3.55;;;1.88;;
14665;SDS011;7420;53.574;10.040;2022-10-16T05:01:18;5.63;;;2.13;;
14665;SDS011;7420;53.574;10.040;2022-10-16T05:03:43;4.03;;;2.30;;
14665;SDS011;7420;53.574;10.040;2022-10-16T05:06:08;5.53;;;2.22;;
14665;SDS011;7420;53.574;10.040;2022-10-16T05:08:34;4.20;;;2.28;;
14665;SDS011;7420;53.574;10.040;2022-10-16T05:10:59;5.68;;;2.88;;
14665;SDS011;7420;53.574;10.040;2022-10-16T05:13:25;3.60;;;2.15;;
14665;SDS011;7420;53.574;10.040;2022-10-16T05:15:50;3.08;;;2.33;;
14665;SDS011;7420;53.574;10.040;2022-10-16T05:18:16;4.75;;;2.30;;
14665;SDS011;7420;53.574;10.040;2022-10-16T05:20:41;4.93;;;2.60;;
14665;SDS011;7420;53.574;10.040;2022-10-16T05:23:07;5.88;;;2.70;;
14665;SDS011;7420;53.574;10.040;2022-10-16T05:25:35;5.28;;;2.85;;
14665;SDS011;7420;53.574;10.040;2022-10-16T05:28:01;5.38;;;2.70;;
14665;SDS011;7420;53.574;10.040;2022-10-16T05:30:26;7.47;;;2.80;;
14665;SDS011;7420;53.574;10.040;2022-10-16T05:32:51;5.30;;;2.88;;
14665;SDS011;7420;53.574;10.040;2022-10-16T05:35:17;5.55;;;2.70;;
14665;SDS011;7420;53.574;10.040;2022-10-16T05:37:43;4.10;;;2.75;;
14665;SDS011;7420;53.574;10.040;2022-10-16T05:40:09;10.27;;;2.80;;
14665;SDS011;7420;53.574;10.040;2022-10-16T05:42:35;4.72;;;2.25;;
14665;SDS011;7420;53.574;10.040;2022-10-16T05:45:00;4.63;;;2.60;;
14665;SDS011;7420;53.574;10.040;2022-10-16T05:47:26;5.75;;;2.60;;
14665;SDS011;7420;53.574;10.040;2022-10-16T05:49:51;8.63;;;3.65;;
14665;SDS011;7420;53.574;10.040;2022-10-16T05:52:16;4.18;;;2.58;;
14665;SDS011;7420;53.574;10.040;2022-10-16T05:54:42;4.65;;;3.15;;
14665;SDS011;7420;53.574;10.040;2022-10-16T05:57:08;5.38;;;2.60;;
14665;SDS011;7420;53.574;10.040;2022-10-16T05:59:33;6.53;;;2.60;;
14665;SDS011;7420;53.574;10.040;2022-10-16T06:01:59;5.30;;;2.80;;
14665;SDS011;7420;53.574;10.040;2022-10-16T06:04:24;3.25;;;2.33;;
14665;SDS011;7420;53.574;10.040;2022-10-16T06:06:49;3.75;;;2.28;;
14665;SDS011;7420;53.574;10.040;2022-10-16T06:09:14;4.03;;;2.10;;
14665;SDS011;7420;53.574;10.040;2022-10-16T06:11:40;4.85;;;2.15;;
14665;SDS011;7420;53.574;10.040;2022-10-16T06:14:05;8.05;;;2.63;;
14665;SDS011;7420;53.574;10.040;2022-10-16T06:16:34;4.55;;;2.50;;
14665;SDS011;7420;53.574;10.040;2022-10-16T06:19:01;5.00;;;2.80;;
14665;SDS011;7420;53.574;10.040;2022-10-16T06:21:30;5.70;;;2.55;;
14665;SDS011;7420;53.574;10.040;2022-10-16T06:23:56;3.95;;;2.70;;
14665;SDS011;7420;53.574;10.040;2022-10-16T06:26:23;5.20;;;2.60;;
14665;SDS011;7420;53.574;10.040;2022-10-16T06:28:50;4.13;;;3.15;;
14665;SDS011;7420;53.574;10.040;2022-10-16T06:31:15;7.60;;;3.58;;
14665;SDS011;7420;53.574;10.040;2022-10-16T06:33:42;4.05;;;2.50;;
14665;SDS011;7420;53.574;10.040;2022-10-16T06:36:08;6.80;;;3.42;;
14665;SDS011;7420;53.574;10.040;2022-10-16T06:38:39;4.45;;;2.83;;
14665;SDS011;7420;53.574;10.040;2022-10-16T06:41:05;7.70;;;3.08;;
14665;SDS011;7420;53.574;10.040;2022-10-16T06:43:32;6.53;;;2.58;;
14665;SDS011;7420;53.574;10.040;2022-10-16T06:46:00;5.55;;;3.42;;
14665;SDS011;7420;53.574;10.040;2022-10-16T06:48:26;5.15;;;3.05;;
14665;SDS011;7420;53.574;10.040;2022-10-16T06:53:22;6.70;;;3.50;;
14665;SDS011;7420;53.574;10.040;2022-10-16T06:55:51;9.52;;;3.25;;
14665;SDS011;7420;53.574;10.040;2022-10-16T06:58:16;4.93;;;2.95;;
14665;SDS011;7420;53.574;10.040;2022-10-16T07:00:42;4.57;;;3.08;;
14665;SDS011;7420;53.574;10.040;2022-10-16T07:03:07;5.30;;;3.63;;
14665;SDS011;7420;53.574;10.040;2022-10-16T07:05:37;5.50;;;3.30;;
14665;SDS011;7420;53.574;10.040;2022-10-16T07:08:03;9.57;;;3.63;;
14665;SDS011;7420;53.574;10.040;2022-10-16T07:10:30;7.38;;;3.15;;
14665;SDS011;7420;53.574;10.040;2022-10-16T07:12:56;5.28;;;3.30;;
14665;SDS011;7420;53.574;10.040;2022-10-16T07:15:21;6.32;;;3.33;;
14665;SDS011;7420;53.574;10.040;2022-10-16T07:17:46;4.93;;;3.63;;
14665;SDS011;7420;53.574;10.040;2022-10-16T07:20:12;6.00;;;3.15;;
14665;SDS011;7420;53.574;10.040;2022-10-16T07:22:37;6.82;;;3.78;;
14665;SDS011;7420;53.574;10.040;2022-10-16T07:25:02;6.93;;;3.75;;
14665;SDS011;7420;53.574;10.040;2022-10-16T07:27:28;7.75;;;3.60;;
14665;SDS011;7420;53.574;10.040;2022-10-16T07:29:53;5.93;;;3.50;;
14665;SDS011;7420;53.574;10.040;2022-10-16T07:32:18;6.00;;;3.65;;
14665;SDS011;7420;53.574;10.040;2022-10-16T07:34:44;4.32;;;3.15;;
14665;SDS011;7420;53.574;10.040;2022-10-16T07:37:10;5.68;;;3.20;;
14665;SDS011;7420;53.574;10.040;2022-10-16T07:39:36;5.32;;;3.00;;
14665;SDS011;7420;53.574;10.040;2022-10-16T07:42:01;5.35;;;3.20;;
14665;SDS011;7420;53.574;10.040;2022-10-16T07:44:26;6.10;;;2.65;;
14665;SDS011;7420;53.574;10.040;2022-10-16T07:46:51;4.60;;;2.80;;
14665;SDS011;7420;53.574;10.040;2022-10-16T07:49:17;4.90;;;2.97;;
14665;SDS011;7420;53.574;10.040;2022-10-16T07:51:42;6.07;;;3.38;;
14665;SDS011;7420;53.574;10.040;2022-10-16T07:54:08;4.93;;;2.88;;
14665;SDS011;7420;53.574;10.040;2022-10-16T07:56:34;4.70;;;3.10;;
14665;SDS011;7420;53.574;10.040;2022-10-16T07:58:59;4.22;;;2.67;;
14665;SDS011;7420;53.574;10.040;2022-10-16T08:01:25;6.35;;;3.08;;
14665;SDS011;7420;53.574;10.040;2022-10-16T08:03:50;5.22;;;2.50;;
14665;SDS011;7420;53.574;10.040;2022-10-16T08:06:17;3.53;;;2.25;;
14665;SDS011;7420;53.574;10.040;2022-10-16T08:08:43;5.15;;;2.53;;
14665;SDS011;7420;53.574;10.040;2022-10-16T08:11:08;2.67;;;2.05;;
14665;SDS011;7420;53.574;10.040;2022-10-16T08:13:34;5.90;;;3.03;;
14665;SDS011;7420;53.574;10.040;2022-10-16T08:16:00;3.42;;;2.83;;
14665;SDS011;7420;53.574;10.040;2022-10-16T08:18:26;6.75;;;3.22;;
14665;SDS011;7420;53.574;10.040;2022-10-16T08:20:58;7.22;;;3.17;;
14665;SDS011;7420;53.574;10.040;2022-10-16T08:23:25;5.15;;;2.42;;
14665;SDS011;7420;53.574;10.040;2022-10-16T08:25:52;5.43;;;2.67;;
14665;SDS011;7420;53.574;10.040;2022-10-16T08:28:19;4.35;;;3.10;;
14665;SDS011;7420;53.574;10.040;2022-10-16T08:30:44;4.60;;;2.65;;
14665;SDS011;7420;53.574;10.040;2022-10-16T08:33:09;5.28;;;2.35;;
14665;SDS011;7420;53.574;10.040;2022-10-16T08:35:35;4.20;;;2.58;;
14665;SDS011;7420;53.574;10.040;2022-10-16T08:38:02;6.95;;;3.08;;
14665;SDS011;7420;53.574;10.040;2022-10-16T08:40:29;3.70;;;2.42;;
14665;SDS011;7420;53.574;10.040;2022-10-16T08:48:13;5.65;;;2.60;;
14665;SDS011;7420;53.574;10.040;2022-10-16T08:50:39;5.15;;;2.90;;
14665;SDS011;7420;53.574;10.040;2022-10-16T08:53:06;5.28;;;2.80;;
14665;SDS011;7420;53.574;10.040;2022-10-16T08:55:42;4.43;;;2.55;;
14665;SDS011;7420;53.574;10.040;2022-10-16T08:58:12;4.35;;;2.80;;
14665;SDS011;7420;53.574;10.040;2022-10-16T09:00:39;3.50;;;2.15;;
14665;SDS011;7420;53.574;10.040;2022-10-16T09:06:08;4.78;;;2.42;;
14665;SDS011;7420;53.574;10.040;2022-10-16T09:09:23;3.47;;;2.38;;
14665;SDS011;7420;53.574;10.040;2022-10-16T09:19:46;3.42;;;1.83;;
14665;SDS011;7420;53.574;10.040;2022-10-16T09:22:18;4.70;;;2.50;;
14665;SDS011;7420;53.574;10.040;2022-10-16T09:24:50;4.18;;;2.08;;
14665;SDS011;7420;53.574;10.040;2022-10-16T09:27:15;3.53;;;1.88;;
14665;SDS011;7420;53.574;10.040;2022-10-16T09:29:40;4.10;;;1.90;;
14665;SDS011;7420;53.574;10.040;2022-10-16T09:32:10;4.90;;;2.10;;
14665;SDS011;7420;53.574;10.040;2022-10-16T09:34:40;3.97;;;2.35;;
14665;SDS011;7420;53.574;10.040;2022-10-16T09:37:12;2.83;;;1.90;;
14665;SDS011;7420;53.574;10.040;2022-10-16T09:39:45;5.65;;;2.30;;
14665;SDS011;7420;53.574;10.040;2022-10-16T09:42:26;3.00;;;1.92;;
14665;SDS011;7420;53.574;10.040;2022-10-16T09:44:56;3.78;;;2.10;;
14665;SDS011;7420;53.574;10.040;2022-10-16T09:47:28;4.90;;;2.08;;
14665;SDS011;7420;53.574;10.040;2022-10-16T09:49:56;2.83;;;2.10;;
14665;SDS011;7420;53.574;10.040;2022-10-16T09:52:27;3.10;;;1.80;;
14665;SDS011;7420;53.574;10.040;2022-10-16T09:57:20;4.32;;;2.15;;
14665;SDS011;7420;53.574;10.040;2022-10-16T09:59:56;3.30;;;1.67;;
14665;SDS011;7420;53.574;10.040;2022-10-16T10:02:29;4.72;;;1.77;;
14665;SDS011;7420;53.574;10.040;2022-10-16T10:04:58;3.75;;;1.85;;
14665;SDS011;7420;53.574;10.040;2022-10-16T10:07:25;4.18;;;1.92;;
14665;SDS011;7420;53.574;10.040;2022-10-16T10:09:52;6.18;;;2.15;;
14665;SDS011;7420;53.574;10.040;2022-10-16T10:12:22;6.35;;;2.60;;
14665;SDS011;7420;53.574;10.040;2022-10-16T10:14:54;3.95;;;2.05;;
14665;SDS011;7420;53.574;10.040;2022-10-16T10:17:30;6.70;;;2.20;;
14665;SDS011;7420;53.574;10.040;2022-10-16T10:27:37;4.95;;;2.13;;
14665;SDS011;7420;53.574;10.040;2022-10-16T10:30:20;3.88;;;1.98;;
14665;SDS011;7420;53.574;10.040;2022-10-16T10:35:45;4.40;;;1.73;;
14665;SDS011;7420;53.574;10.040;2022-10-16T10:38:39;4.10;;;1.77;;
14665;SDS011;7420;53.574;10.040;2022-10-16T10:41:16;4.80;;;1.90;;
14665;SDS011;7420;53.574;10.040;2022-10-16T10:46:32;3.30;;;1.70;;
14665;SDS011;7420;53.574;10.040;2022-10-16T10:51:39;3.63;;;1.65;;
14665;SDS011;7420;53.574;10.040;2022-10-16T10:54:15;3.42;;;1.70;;
14665;SDS011;7420;53.574;10.040;2022-10-16T11:00:03;6.00;;;1.95;;
14665;SDS011;7420;53.574;10.040;2022-10-16T11:02:58;5.50;;;1.92;;
14665;SDS011;7420;53.574;10.040;2022-10-16T11:05:40;6.93;;;1.50;;
14665;SDS011;7420;53.574;10.040;2022-10-16T11:10:58;2.40;;;1.73;;
14665;SDS011;7420;53.574;10.040;2022-10-16T11:13:40;5.40;;;1.40;;
14665;SDS011;7420;53.574;10.040;2022-10-16T11:16:16;3.97;;;1.50;;
14665;SDS011;7420;53.574;10.040;2022-10-16T11:18:49;5.30;;;1.60;;
14665;SDS011;7420;53.574;10.040;2022-10-16T11:21:23;2.40;;;1.50;;
14665;SDS011;7420;53.574;10.040;2022-10-16T11:24:04;1.98;;;1.20;;
14665;SDS011;7420;53.574;10.040;2022-10-16T11:26:39;5.82;;;1.90;;
14665;SDS011;7420;53.574;10.040;2022-10-16T11:29:12;5.15;;;1.83;;
14665;SDS011;7420;53.574;10.040;2022-10-16T11:31:43;3.65;;;1.30;;
14665;SDS011;7420;53.574;10.040;2022-10-16T11:34:17;5.13;;;1.40;;
14665;SDS011;7420;53.574;10.040;2022-10-16T11:36:50;4.30;;;1.63;;
14665;SDS011;7420;53.574;10.040;2022-10-16T11:39:24;5.65;;;1.65;;
14665;SDS011;7420;53.574;10.040;2022-10-16T11:41:53;7.35;;;1.92;;
14665;SDS011;7420;53.574;10.040;2022-10-16T11:44:33;4.30;;;1.70;;
14665;SDS011;7420;53.574;10.040;2022-10-16T11:49:30;6.78;;;1.50;;
14665;SDS011;7420;53.574;10.040;2022-10-16T11:54:49;9.77;;;2.05;;
14665;SDS011;7420;53.574;10.040;2022-10-16T11:57:32;4.05;;;1.77;;
14665;SDS011;7420;53.574;10.040;2022-10-16T12:02:59;7.60;;;1.60;;
14665;SDS011;7420;53.574;10.040;2022-10-16T12:08:23;4.32;;;1.50;;
14665;SDS011;7420;53.574;10.040;2022-10-16T12:10:48;4.35;;;1.58;;
14665;SDS011;7420;53.574;10.040;2022-10-16T12:13:34;3.42;;;1.50;;
14665;SDS011;7420;53.574;10.040;2022-10-16T12:18:39;3.63;;;1.40;;
14665;SDS011;7420;53.574;10.040;2022-10-16T12:21:06;4.53;;;1.45;;
14665;SDS011;7420;53.574;10.040;2022-10-16T12:23:36;2.60;;;1.40;;
14665;SDS011;7420;53.574;10.040;2022-10-16T12:26:02;4.78;;;1.50;;
14665;SDS011;7420;53.574;10.040;2022-10-16T12:28:30;3.05;;;1.30;;
14665;SDS011;7420;53.574;10.040;2022-10-16T12:33:35;7.53;;;1.85;;
14665;SDS011;7420;53.574;10.040;2022-10-16T12:36:45;2.75;;;1.52;;
14665;SDS011;7420;53.574;10.040;2022-10-16T12:38:53;7.97;;;1.92;;
14665;SDS011;7420;53.574;10.040;2022-10-16T12:43:54;4.65;;;1.33;;
14665;SDS011;7420;53.574;10.040;2022-10-16T12:46:38;3.53;;;1.58;;
14665;SDS011;7420;53.574;10.040;2022-10-16T12:51:41;4.60;;;1.30;;
14665;SDS011;7420;53.574;10.040;2022-10-16T13:05:04;5.82;;;1.80;;
14665;SDS011;7420;53.574;10.040;2022-10-16T13:13:51;4.30;;;1.40;;
14665;SDS011;7420;53.574;10.040;2022-10-16T13:19:24;5.70;;;1.60;;
14665;SDS011;7420;53.574;10.040;2022-10-16T13:30:20;4.75;;;1.67;;
14665;SDS011;7420;53.574;10.040;2022-10-16T13:32:49;4.30;;;1.55;;
14665;SDS011;7420;53.574;10.040;2022-10-16T13:35:20;3.58;;;1.73;;
14665;SDS011;7420;53.574;10.040;2022-10-16T13:37:48;6.88;;;1.33;;
14665;SDS011;7420;53.574;10.040;2022-10-16T13:40:21;4.50;;;1.50;;
14665;SDS011;7420;53.574;10.040;2022-10-16T13:42:50;4.43;;;1.48;;
14665;SDS011;7420;53.574;10.040;2022-10-16T13:45:18;4.88;;;1.50;;
14665;SDS011;7420;53.574;10.040;2022-10-16T13:47:48;3.47;;;1.70;;
14665;SDS011;7420;53.574;10.040;2022-10-16T13:50:15;4.20;;;2.05;;
14665;SDS011;7420;53.574;10.040;2022-10-16T13:52:42;4.32;;;1.25;;
14665;SDS011;7420;53.574;10.040;2022-10-16T13:55:11;2.75;;;1.58;;
14665;SDS011;7420;53.574;10.040;2022-10-16T14:00:20;4.60;;;1.50;;
14665;SDS011;7420;53.574;10.040;2022-10-16T14:02:55;3.35;;;1.40;;
14665;SDS011;7420;53.574;10.040;2022-10-16T14:05:25;6.18;;;1.50;;
14665;SDS011;7420;53.574;10.040;2022-10-16T14:07:50;3.42;;;2.00;;
14665;SDS011;7420;53.574;10.040;2022-10-16T14:10:30;4.63;;;2.10;;
14665;SDS011;7420;53.574;10.040;2022-10-16T14:12:58;5.65;;;1.80;;
14665;SDS011;7420;53.574;10.040;2022-10-16T14:15:25;4.60;;;1.60;;
14665;SDS011;7420;53.574;10.040;2022-10-16T14:17:51;4.18;;;1.40;;
14665;SDS011;7420;53.574;10.040;2022-10-16T14:20:17;6.13;;;1.60;;
14665;SDS011;7420;53.574;10.040;2022-10-16T14:22:44;3.33;;;1.42;;
14665;SDS011;7420;53.574;10.040;2022-10-16T14:27:45;4.88;;;1.67;;
14665;SDS011;7420;53.574;10.040;2022-10-16T14:30:22;4.13;;;1.52;;
14665;SDS011;7420;53.574;10.040;2022-10-16T14:32:55;3.80;;;1.65;;
14665;SDS011;7420;53.574;10.040;2022-10-16T14:35:27;4.07;;;1.58;;
14665;SDS011;7420;53.574;10.040;2022-10-16T14:37:55;3.43;;;1.30;;
14665;SDS011;7420;53.574;10.040;2022-10-16T14:40:23;5.13;;;1.60;;
14665;SDS011;7420;53.574;10.040;2022-10-16T14:42:51;6.63;;;2.78;;
14665;SDS011;7420;53.574;10.040;2022-10-16T14:45:24;5.07;;;2.28;;
14665;SDS011;7420;53.574;10.040;2022-10-16T14:47:57;3.83;;;1.50;;
14665;SDS011;7420;53.574;10.040;2022-10-16T14:50:25;7.43;;;1.67;;
14665;SDS011;7420;53.574;10.040;2022-10-16T14:52:50;3.22;;;1.65;;
14665;SDS011;7420;53.574;10.040;2022-10-16T14:55:16;4.18;;;1.60;;
14665;SDS011;7420;53.574;10.040;2022-10-16T14:57:42;8.10;;;2.08;;
14665;SDS011;7420;53.574;10.040;2022-10-16T15:00:10;4.22;;;1.70;;
14665;SDS011;7420;53.574;10.040;2022-10-16T15:02:41;4.65;;;1.63;;
14665;SDS011;7420;53.574;10.040;2022-10-16T15:05:12;6.72;;;1.60;;
14665;SDS011;7420;53.574;10.040;2022-10-16T15:07:49;6.03;;;1.88;;
14665;SDS011;7420;53.574;10.040;2022-10-16T15:10:16;5.85;;;1.80;;
14665;SDS011;7420;53.574;10.040;2022-10-16T15:12:42;6.03;;;1.90;;
14665;SDS011;7420;53.574;10.040;2022-10-16T15:17:45;3.38;;;1.88;;
14665;SDS011;7420;53.574;10.040;2022-10-16T15:20:10;8.32;;;2.08;;
14665;SDS011;7420;53.574;10.040;2022-10-16T15:22:36;8.35;;;2.08;;
14665;SDS011;7420;53.574;10.040;2022-10-16T15:25:01;4.47;;;1.95;;
14665;SDS011;7420;53.574;10.040;2022-10-16T15:27:27;5.72;;;1.77;;
14665;SDS011;7420;53.574;10.040;2022-10-16T15:29:52;6.70;;;1.75;;
14665;SDS011;7420;53.574;10.040;2022-10-16T15:32:18;3.22;;;1.50;;
14665;SDS011;7420;53.574;10.040;2022-10-16T15:34:43;5.32;;;2.10;;
14665;SDS011;7420;53.574;10.040;2022-10-16T15:37:08;7.30;;;2.28;;
14665;SDS011;7420;53.574;10.040;2022-10-16T15:39:34;5.00;;;2.20;;
14665;SDS011;7420;53.574;10.040;2022-10-16T15:41:59;7.30;;;2.15;;
14665;SDS011;7420;53.574;10.040;2022-10-16T15:44:24;4.25;;;1.88;;
14665;SDS011;7420;53.574;10.040;2022-10-16T15:46:54;5.47;;;2.08;;
14665;SDS011;7420;53.574;10.040;2022-10-16T15:49:20;8.73;;;1.98;;
14665;SDS011;7420;53.574;10.040;2022-10-16T15:51:45;5.55;;;1.80;;
14665;SDS011;7420;53.574;10.040;2022-10-16T15:54:11;3.70;;;2.10;;
14665;SDS011;7420;53.574;10.040;2022-10-16T15:56:36;6.60;;;2.03;;
14665;SDS011;7420;53.574;10.040;2022-10-16T15:59:02;8.02;;;2.58;;
14665;SDS011;7420;53.574;10.040;2022-10-16T16:01:27;7.55;;;1.80;;
14665;SDS011;7420;53.574;10.040;2022-10-16T16:03:54;7.10;;;2.00;;
14665;SDS011;7420;53.574;10.040;2022-10-16T16:06:21;8.50;;;2.33;;
14665;SDS011;7420;53.574;10.040;2022-10-16T16:08:48;4.47;;;2.00;;
14665;SDS011;7420;53.574;10.040;2022-10-16T16:11:14;3.10;;;2.10;;
14665;SDS011;7420;53.574;10.040;2022-10-16T16:13:41;6.07;;;2.20;;
14665;SDS011;7420;53.574;10.040;2022-10-16T16:16:07;5.63;;;2.13;;
14665;SDS011;7420;53.574;10.040;2022-10-16T16:18:33;5.78;;;1.83;;
14665;SDS011;7420;53.574;10.040;2022-10-16T16:20:59;5.30;;;2.20;;
14665;SDS011;7420;53.574;10.040;2022-10-16T16:23:24;7.85;;;2.20;;
14665;SDS011;7420;53.574;10.040;2022-10-16T16:26:03;5.20;;;1.98;;
14665;SDS011;7420;53.574;10.040;2022-10-16T16:28:28;6.05;;;2.17;;
14665;SDS011;7420;53.574;10.040;2022-10-16T16:30:53;5.90;;;2.13;;
14665;SDS011;7420;53.574;10.040;2022-10-16T16:33:19;6.22;;;2.30;;
14665;SDS011;7420;53.574;10.040;2022-10-16T16:35:44;6.32;;;2.83;;
14665;SDS011;7420;53.574;10.040;2022-10-16T16:38:09;6.38;;;2.85;;
14665;SDS011;7420;53.574;10.040;2022-10-16T16:40:35;6.85;;;2.58;;
14665;SDS011;7420;53.574;10.040;2022-10-16T16:43:00;7.63;;;3.22;;
14665;SDS011;7420;53.574;10.040;2022-10-16T16:45:25;6.65;;;3.03;;
14665;SDS011;7420;53.574;10.040;2022-10-16T16:47:50;6.88;;;2.30;;